Time;durP1;ratioP1;P1;durP2;ratioP2;P2;SDS_P1;SDS_P2;PMS_P1;PMS_P2;Temp;Humidity;BMP_temperature;BMP_pressure;BME280_temperature;BME280_humidity;BME280_pressure;Samples;Min_cycle;Max_cycle;Signal;HPM_P1;HPM_P2
2022/09/21 00:01:52;;;;;;;;;;;;;;;10.50;92.47;102497.44;5051351;28;19916;-86
2022/09/21 00:04:17;;;;;;;;;;;;;;;10.48;91.22;102497.63;5066536;28;19927;-85
2022/09/21 00:06:42;;;;;;;;;;;;;;;10.47;91.24;102493.19;5048719;28;20337;-85
2022/09/21 00:09:08;;;;;;;;;;;;;;;10.48;91.14;102497.63;5052220;28;19924;-85
2022/09/21 00:11:34;;;;;;;;;;;;;;;10.47;90.24;102496.78;5051380;28;19928;-85
2022/09/21 00:14:03;;;;;;;;;;;;;;;10.46;91.22;102495.06;5040767;28;19920;-85
2022/09/21 00:16:29;;;;;;;;;;;;;;;10.44;92.87;102493.56;5050663;28;20348;-84
2022/09/21 00:18:55;;;;;;;;;;;;;;;10.41;92.68;102492.03;5050963;28;19928;-84
2022/09/21 00:21:20;;;;;;;;;;;;;;;10.38;93.25;102496.97;5050368;28;19951;-84
2022/09/21 00:23:46;;;;;;;;;;;;;;;10.30;96.55;102487.75;5050972;28;19935;-85
2022/09/21 00:26:21;;;;;;;;;;;;;;;10.21;97.33;102496.91;5050811;28;19976;-84
2022/09/21 00:28:47;;;;;;;;;;;;;;;10.14;96.55;102490.47;5050916;28;20496;-86
2022/09/21 00:31:15;;;;;;;;;;;;;;;10.12;95.40;102496.06;5050792;28;19920;-85
2022/09/21 00:33:42;;;;;;;;;;;;;;;10.10;94.82;102487.28;5050587;28;19920;-85
2022/09/21 00:36:09;;;;;;;;;;;;;;;10.08;94.51;102488.47;5051851;28;20002;-85
2022/09/21 00:38:35;;;;;;;;;;;;;;;10.06;94.30;102487.75;5050309;28;19924;-85
2022/09/21 00:41:00;;;;;;;;;;;;;;;9.99;97.98;102487.59;5066214;28;19993;-85
2022/09/21 00:43:26;;;;;;;;;;;;;;;9.89;96.54;102490.44;5050517;28;19931;-85
2022/09/21 00:45:56;;;;;;;;;;;;;;;9.81;95.32;102490.44;5050041;28;19951;-86
2022/09/21 00:48:21;;;;;;;;;;;;;;;9.81;98.24;102490.44;5050684;28;19935;-86
2022/09/21 00:50:52;;;;;;;;;;;;;;;9.69;98.93;102489.91;5051091;28;19947;-85
2022/09/21 00:53:18;;;;;;;;;;;;;;;9.66;97.23;102484.00;5049469;28;20489;-84
2022/09/21 00:55:48;;;;;;;;;;;;;;;9.63;96.69;102491.41;5052339;28;20083;-85
2022/09/21 00:58:15;;;;;;;;;;;;;;;9.62;96.26;102489.72;5051676;28;19932;-85
2022/09/21 01:00:41;;;;;;;;;;;;;;;9.62;96.16;102491.59;5050257;28;19963;-86
2022/09/21 01:03:08;;;;;;;;;;;;;;;9.62;95.41;102491.59;5050721;28;19982;-86
2022/09/21 01:05:33;;;;;;;;;;;;;;;9.61;95.08;102485.34;5050241;28;19924;-86
2022/09/21 01:08:00;;;;;;;;;;;;;;;9.61;95.34;102493.47;5050366;28;20241;-86
2022/09/21 01:10:29;;;;;;;;;;;;;;;9.58;95.78;102493.75;5050499;28;19924;-86
2022/09/21 01:12:55;;;;;;;;;;;;;;;9.56;95.44;102489.53;5050450;28;19924;-86
2022/09/21 01:15:26;;;;;;;;;;;;;;;9.54;94.57;102492.41;5050123;28;19966;-85
2022/09/21 01:17:54;;;;;;;;;;;;;;;9.53;94.48;102489.88;5049841;28;19924;-86
2022/09/21 01:20:23;;;;;;;;;;;;;;;9.51;94.36;102492.75;5050318;28;19925;-86
2022/09/21 01:22:54;;;;;;;;;;;;;;;9.48;94.70;102487.66;5049523;28;20022;-85
2022/09/21 01:25:31;;;;;;;;;;;;;;;9.44;94.71;102487.13;5049931;28;19932;-86
2022/09/21 01:27:56;;;;;;;;;;;;;;;9.41;94.94;102494.72;5049393;28;19929;-85
2022/09/21 01:30:22;;;;;;;;;;;;;;;9.36;96.43;102494.38;5049896;28;19928;-85
2022/09/21 01:32:57;;;;;;;;;;;;;;;9.29;93.79;102497.72;5049057;28;19928;-85
2022/09/21 01:35:25;;;;;;;;;;;;;;;9.24;93.85;102493.81;5050202;28;19976;-85
2022/09/21 01:37:59;;;;;;;;;;;;;;;9.20;93.30;102501.41;5048860;28;20035;-84
2022/09/21 01:40:31;;;;;;;;;;;;;;;9.19;94.08;102497.00;5049846;28;20376;-86
2022/09/21 01:42:58;;;;;;;;;;;;;;;9.21;94.60;102489.56;5049748;28;19962;-84
2022/09/21 01:45:35;;;;;;;;;;;;;;;9.23;94.27;102490.28;5049411;28;19928;-85
2022/09/21 01:48:00;;;;;;;;;;;;;;;9.23;95.87;102486.72;5048953;28;20345;-86
2022/09/21 01:50:30;;;;;;;;;;;;;;;9.17;99.37;102493.63;5048922;28;20026;-85
2022/09/21 01:52:59;;;;;;;;;;;;;;;9.15;97.61;102492.91;5049570;28;19931;-87
2022/09/21 01:55:27;;;;;;;;;;;;;;;9.15;99.15;102498.31;5049913;28;20065;-87
2022/09/21 01:57:58;;;;;;;;;;;;;;;9.11;99.62;102496.97;5049087;28;19920;-87
2022/09/21 02:00:31;;;;;;;;;;;;;;;9.09;98.27;102496.28;5049146;28;19924;-87
2022/09/21 02:03:01;;;;;;;;;;;;;;;9.09;97.77;102497.13;5049362;28;19924;-87
2022/09/21 02:05:29;;;;;;;;;;;;;;;9.10;97.77;102492.59;5048110;28;19932;-87
2022/09/21 02:07:54;;;;;;;;;;;;;;;9.11;97.43;102503.22;5048209;28;20404;-88
2022/09/21 02:10:22;;;;;;;;;;;;;;;9.11;98.08;102497.81;5049228;28;19931;-88
2022/09/21 02:12:48;;;;;;;;;;;;;;;9.07;99.60;102493.75;5049196;28;20235;-87
2022/09/21 02:15:13;;;;;;;;;;;;;;;9.01;99.61;102490.84;5048602;28;20093;-87
2022/09/21 02:17:57;;;;;;;;;;;;;;;9.00;98.65;102495.38;5048012;28;19989;-86
2022/09/21 02:20:26;;;;;;;;;;;;;;;8.99;97.48;102491.00;5048541;28;19925;-87
2022/09/21 02:22:55;;;;;;;;;;;;;;;9.00;97.22;102494.53;5048447;28;20047;-87
2022/09/21 02:25:26;;;;;;;;;;;;;;;9.00;97.35;102494.53;5048227;28;20004;-87
2022/09/21 02:27:59;;;;;;;;;;;;;;;8.96;99.26;102494.00;5048231;28;20350;-87
2022/09/21 02:30:25;;;;;;;;;;;;;;;8.88;99.15;102502.94;5048136;28;19920;-87
2022/09/21 02:33:09;;;;;;;;;;;;;;;8.88;98.61;102497.53;5048532;28;21195;-87
2022/09/21 02:35:37;;;;;;;;;;;;;;;8.87;98.34;102487.72;5049001;28;19954;-87
2022/09/21 02:38:15;;;;;;;;;;;;;;;8.86;99.20;102498.69;5049192;28;20847;-87
2022/09/21 02:40:50;;;;;;;;;;;;;;;8.78;99.99;102497.66;5048538;28;19925;-88
2022/09/21 02:43:35;;;;;;;;;;;;;;;8.77;98.82;102495.06;5048371;28;19978;-87
2022/09/21 02:46:04;;;;;;;;;;;;;;;8.74;98.41;102490.88;5048051;28;19943;-87
2022/09/21 02:48:34;;;;;;;;;;;;;;;8.73;98.05;102493.69;5047854;28;20108;-88
2022/09/21 02:51:06;;;;;;;;;;;;;;;8.69;97.47;102485.09;5048133;28;20275;-87
2022/09/21 02:53:35;;;;;;;;;;;;;;;8.65;96.75;102489.13;5052234;28;20249;-88
2022/09/21 02:56:05;;;;;;;;;;;;;;;8.59;99.29;102498.72;5050486;28;20527;-87
2022/09/21 02:58:32;;;;;;;;;;;;;;;8.46;99.64;102492.88;5029287;28;19919;-87
2022/09/21 03:00:58;;;;;;;;;;;;;;;8.39;99.65;102491.75;5050463;28;19932;-87
2022/09/21 03:03:25;;;;;;;;;;;;;;;8.33;99.87;102495.09;5051103;28;19928;-87
2022/09/21 03:05:51;;;;;;;;;;;;;;;8.30;99.02;102482.75;5050988;28;20383;-88
2022/09/21 03:08:17;;;;;;;;;;;;;;;8.28;98.97;102490.13;5051019;28;19921;-87
2022/09/21 03:10:42;;;;;;;;;;;;;;;8.24;98.33;102488.75;5049929;28;21225;-88
2022/09/21 03:13:08;;;;;;;;;;;;;;;8.20;96.98;102482.84;5051547;28;19967;-87
2022/09/21 03:15:34;;;;;;;;;;;;;;;8.17;98.19;102493.94;5051167;28;19975;-87
2022/09/21 03:17:59;;;;;;;;;;;;;;;8.11;99.17;102497.25;5050547;28;20189;-87
2022/09/21 03:20:25;;;;;;;;;;;;;;;8.05;99.25;102498.72;5051340;28;19967;-87
2022/09/21 03:22:50;;;;;;;;;;;;;;;8.05;99.16;102495.16;5050771;28;20007;-85
2022/09/21 03:25:15;;;;;;;;;;;;;;;8.01;99.57;102497.34;5051471;28;19928;-85
2022/09/21 03:27:41;;;;;;;;;;;;;;;8.01;99.15;102499.19;5051206;28;19928;-86
2022/09/21 03:30:07;;;;;;;;;;;;;;;8.00;98.65;102508.31;5029725;28;20027;-85
2022/09/21 03:32:32;;;;;;;;;;;;;;;7.98;98.83;102496.78;5051632;28;19925;-87
2022/09/21 03:34:58;;;;;;;;;;;;;;;7.96;97.94;102499.66;5051271;28;20275;-86
2022/09/21 03:37:23;;;;;;;;;;;;;;;7.94;98.77;102502.50;5051044;28;19925;-88
2022/09/21 03:39:49;;;;;;;;;;;;;;;7.92;98.40;102499.09;5051194;28;19928;-86
2022/09/21 03:42:14;;;;;;;;;;;;;;;7.92;98.29;102495.56;5051253;28;20490;-86
2022/09/21 03:44:40;;;;;;;;;;;;;;;7.92;98.00;102507.19;5049358;28;19968;-86
2022/09/21 03:47:05;;;;;;;;;;;;;;;7.91;97.99;102505.53;5051105;28;19960;-85
2022/09/21 03:49:31;;;;;;;;;;;;;;;7.86;100.00;102510.53;5051483;28;19923;-86
2022/09/21 03:51:58;;;;;;;;;;;;;;;7.78;98.85;102510.44;5051613;28;19923;-85
2022/09/21 03:54:24;;;;;;;;;;;;;;;7.75;98.03;102514.28;5050845;28;19930;-85
2022/09/21 03:56:49;;;;;;;;;;;;;;;7.71;98.94;102512.03;5051423;28;19928;-86
2022/09/21 03:59:15;;;;;;;;;;;;;;;7.64;100.00;102511.78;5041368;28;20319;-85
2022/09/21 04:01:41;;;;;;;;;;;;;;;7.61;99.25;102514.78;5051159;28;20318;-85
2022/09/21 04:04:06;;;;;;;;;;;;;;;7.58;98.67;102515.94;5050988;28;19924;-86
2022/09/21 04:06:32;;;;;;;;;;;;;;;7.57;98.22;102514.25;5051299;28;19959;-86
2022/09/21 04:08:59;;;;;;;;;;;;;;;7.55;97.96;102516.25;5049900;28;19947;-86
2022/09/21 04:11:24;;;;;;;;;;;;;;;7.53;97.79;102510.16;5051111;28;19994;-86
2022/09/21 04:13:52;;;;;;;;;;;;;;;7.51;97.46;102509.47;5065946;28;19928;-86
2022/09/21 04:16:17;;;;;;;;;;;;;;;7.48;96.96;102501.69;5051106;28;19966;-86
2022/09/21 04:18:42;;;;;;;;;;;;;;;7.47;96.88;102502.66;5049235;28;19924;-86
2022/09/21 04:21:08;;;;;;;;;;;;;;;7.46;96.95;102511.75;5051176;28;19924;-86
2022/09/21 04:23:34;;;;;;;;;;;;;;;7.42;97.13;102511.22;5065792;28;19920;-86
2022/09/21 04:25:59;;;;;;;;;;;;;;;7.40;97.61;102510.50;5051014;28;20039;-87
2022/09/21 04:28:24;;;;;;;;;;;;;;;7.38;97.02;102514.34;5050018;28;19952;-86
2022/09/21 04:30:53;;;;;;;;;;;;;;;7.35;96.46;102509.28;5054605;28;20019;-87
2022/09/21 04:33:18;;;;;;;;;;;;;;;7.34;96.54;102510.25;5054413;28;19920;-87
2022/09/21 04:35:44;;;;;;;;;;;;;;;7.30;96.45;102504.31;5054260;28;19947;-87
2022/09/21 04:38:09;;;;;;;;;;;;;;;7.29;96.48;102507.16;5053907;28;19993;-87
2022/09/21 04:40:34;;;;;;;;;;;;;;;7.25;96.47;102503.94;5053799;28;19924;-87
2022/09/21 04:42:59;;;;;;;;;;;;;;;7.22;96.53;102515.84;5054459;28;20016;-87
2022/09/21 04:45:25;;;;;;;;;;;;;;;7.20;96.20;102515.13;5054310;28;19935;-87
2022/09/21 04:47:50;;;;;;;;;;;;;;;7.17;96.17;102515.44;5052022;28;19924;-87
2022/09/21 04:50:15;;;;;;;;;;;;;;;7.16;96.37;102515.59;5054542;28;19946;-87
2022/09/21 04:52:41;;;;;;;;;;;;;;;7.15;96.14;102520.13;5052261;28;20329;-87
2022/09/21 04:55:06;;;;;;;;;;;;;;;7.13;95.95;102516.75;5054207;28;19920;-87
2022/09/21 04:57:32;;;;;;;;;;;;;;;7.13;96.35;102524.81;5053987;28;19962;-87
2022/09/21 04:59:57;;;;;;;;;;;;;;;7.09;96.30;102518.88;5053704;28;19977;-87
2022/09/21 05:02:23;;;;;;;;;;;;;;;7.10;96.44;102523.28;5054643;28;20019;-87
2022/09/21 05:04:48;;;;;;;;;;;;;;;7.09;96.28;102526.13;5053766;28;19928;-85
2022/09/21 05:07:14;;;;;;;;;;;;;;;7.06;96.03;102527.25;5052460;28;20360;-86
2022/09/21 05:12:23;;;;;;;;;;;;;;;7.03;96.26;102529.38;5053781;28;19946;-86
2022/09/21 05:14:48;;;;;;;;;;;;;;;7.02;96.28;102530.41;5053260;28;20413;-86
2022/09/21 05:17:13;;;;;;;;;;;;;;;7.00;96.79;102530.53;5045860;28;20361;-85
2022/09/21 05:19:39;;;;;;;;;;;;;;;6.98;96.32;102531.69;5013407;28;19929;-86
2022/09/21 05:22:04;;;;;;;;;;;;;;;6.96;96.10;102528.28;5013706;28;19936;-86
2022/09/21 05:24:29;;;;;;;;;;;;;;;6.93;95.80;102538.38;5013484;28;19974;-86
2022/09/21 05:26:55;;;;;;;;;;;;;;;6.92;95.96;102533.09;5013615;28;19935;-86
2022/09/21 05:29:20;;;;;;;;;;;;;;;6.89;96.18;102536.94;5013444;28;19975;-86
2022/09/21 05:31:51;;;;;;;;;;;;;;;6.89;96.00;102539.63;5012008;28;21308;-86
2022/09/21 05:34:31;;;;;;;;;;;;;;;6.88;96.08;102545.19;5013230;28;19921;-86
2022/09/21 05:37:03;;;;;;;;;;;;;;;6.86;96.16;102542.63;5045549;28;20369;-86
2022/09/21 05:39:28;;;;;;;;;;;;;;;6.87;96.52;102546.19;5013048;28;19928;-86
2022/09/21 05:41:54;;;;;;;;;;;;;;;6.85;96.07;102554.41;5012971;28;19925;-86
2022/09/21 05:44:20;;;;;;;;;;;;;;;6.86;96.11;102548.00;5012962;28;19948;-86
2022/09/21 05:46:51;;;;;;;;;;;;;;;6.87;95.93;102552.41;5013344;28;19948;-86
2022/09/21 05:49:20;;;;;;;;;;;;;;;6.88;96.01;102551.44;5043377;28;20012;-87
2022/09/21 05:51:51;;;;;;;;;;;;;;;6.90;96.12;102554.81;5013199;28;19936;-86
2022/09/21 05:54:19;;;;;;;;;;;;;;;6.91;95.86;102555.69;5013203;28;19917;-86
2022/09/21 05:57:03;;;;;;;;;;;;;;;6.93;96.21;102557.25;5013025;28;19927;-87
2022/09/21 05:59:46;;;;;;;;;;;;;;;6.96;96.31;102563.31;5012698;28;19917;-86
2022/09/21 06:02:23;;;;;;;;;;;;;;;6.98;96.45;102567.56;5013001;28;19928;-86
2022/09/21 06:04:49;;;;;;;;;;;;;;;7.01;97.59;102566.44;5012163;28;19929;-86
2022/09/21 06:07:14;;;;;;;;;;;;;;;7.06;97.57;102569.53;5012602;28;20328;-86
2022/09/21 06:09:39;;;;;;;;;;;;;;;7.10;98.04;102563.69;5012591;28;20024;-87
2022/09/21 06:12:05;;;;;;;;;;;;;;;7.15;98.80;102565.94;5044828;28;19970;-86
2022/09/21 06:14:31;;;;;;;;;;;;;;;7.21;98.40;102565.38;5012511;28;19928;-87
2022/09/21 06:16:56;;;;;;;;;;;;;;;7.31;98.55;102572.59;5042450;28;19970;-85
2022/09/21 06:19:21;;;;;;;;;;;;;;;7.39;98.61;102578.09;5084808;28;19944;-86
2022/09/21 06:21:46;;;;;;;;;;;;;;;7.46;98.45;102576.47;5056097;28;20283;-87
2022/09/21 06:24:14;;;;;;;;;;;;;;;7.55;98.55;102578.28;5036929;28;20265;-88
2022/09/21 06:26:40;;;;;;;;;;;;;;;7.64;99.31;102579.22;5030769;28;19983;-88
2022/09/21 06:29:05;;;;;;;;;;;;;;;7.72;99.32;102578.50;5062399;28;19964;-86
2022/09/21 06:31:31;;;;;;;;;;;;;;;7.82;99.04;102575.72;5053306;28;19955;-87
2022/09/21 06:33:57;;;;;;;;;;;;;;;7.91;99.64;102581.09;5051501;28;20868;-87
2022/09/21 06:36:22;;;;;;;;;;;;;;;8.03;99.96;102572.78;5032199;28;19929;-86
2022/09/21 06:38:47;;;;;;;;;;;;;;;8.13;100.00;102576.25;5049970;28;20042;-87
2022/09/21 06:41:13;;;;;;;;;;;;;;;8.22;100.00;102578.03;5051628;28;19928;-87
2022/09/21 06:43:38;;;;;;;;;;;;;;;8.32;100.00;102575.25;5051470;28;19924;-87
2022/09/21 06:46:04;;;;;;;;;;;;;;;8.41;100.00;102577.03;5051744;28;19982;-86
2022/09/21 06:48:31;;;;;;;;;;;;;;;8.53;100.00;102580.38;5051463;28;20381;-87
2022/09/21 06:51:00;;;;;;;;;;;;;;;8.65;100.00;102578.28;5050063;28;20427;-87
2022/09/21 06:53:26;;;;;;;;;;;;;;;8.77;100.00;102574.31;5050980;28;20481;-86
2022/09/21 06:55:51;;;;;;;;;;;;;;;8.90;100.00;102576.59;5051735;28;20618;-87
2022/09/21 06:58:16;;;;;;;;;;;;;;;9.04;100.00;102583.28;5030219;28;19959;-87
2022/09/21 07:00:42;;;;;;;;;;;;;;;9.17;98.01;102577.47;5051583;28;20059;-86
2022/09/21 07:03:09;;;;;;;;;;;;;;;9.34;97.72;102582.94;5051593;28;19960;-87
2022/09/21 07:05:34;;;;;;;;;;;;;;;9.46;95.92;102578.94;5052054;28;19924;-88
2022/09/21 07:08:00;;;;;;;;;;;;;;;9.64;96.63;102584.28;5052107;28;19928;-87
2022/09/21 07:10:25;;;;;;;;;;;;;;;9.79;96.01;102584.50;5051549;28;19935;-88
2022/09/21 07:12:51;;;;;;;;;;;;;;;9.94;94.83;102590.13;5051343;28;20140;-86
2022/09/21 07:15:18;;;;;;;;;;;;;;;10.09;95.37;102593.03;5051297;28;20375;-87
2022/09/21 07:17:43;;;;;;;;;;;;;;;10.25;93.81;102582.25;5050651;28;20669;-88
2022/09/21 07:20:09;;;;;;;;;;;;;;;10.39;94.10;102588.91;5051336;28;19928;-88
2022/09/21 07:22:35;;;;;;;;;;;;;;;10.52;95.19;102584.84;5050571;28;19944;-86
2022/09/21 07:25:00;;;;;;;;;;;;;;;10.69;95.99;102596.53;5069999;28;19916;-86
2022/09/21 07:27:27;;;;;;;;;;;;;;;10.84;93.91;102586.72;5047795;28;19928;-87
2022/09/21 07:29:52;;;;;;;;;;;;;;;10.98;92.62;102594.13;5047459;28;19927;-86
2022/09/21 07:32:18;;;;;;;;;;;;;;;11.09;92.81;102587.50;5049033;28;19924;-86
2022/09/21 07:34:43;;;;;;;;;;;;;;;11.22;93.14;102584.28;5047628;28;20095;-86
2022/09/21 07:37:09;;;;;;;;;;;;;;;11.38;93.99;102587.94;5048066;28;19992;-85
2022/09/21 07:39:34;;;;;;;;;;;;;;;11.54;93.95;102574.31;5048185;28;19920;-86
2022/09/21 07:42:00;;;;;;;;;;;;;;;11.70;92.89;102575.28;5046215;28;20009;-86
2022/09/21 07:44:25;;;;;;;;;;;;;;;11.86;92.00;102577.06;5054286;28;20383;-87
2022/09/21 07:46:51;;;;;;;;;;;;;;;11.98;91.80;102578.38;5052989;28;19921;-86
2022/09/21 07:49:16;;;;;;;;;;;;;;;12.11;91.47;102580.53;5047271;28;19927;-86
2022/09/21 07:51:41;;;;;;;;;;;;;;;12.26;92.17;102586.88;5046858;28;19920;-86
2022/09/21 07:54:09;;;;;;;;;;;;;;;12.41;92.16;102577.94;5047303;28;20565;-87
2022/09/21 07:56:37;;;;;;;;;;;;;;;12.56;90.55;102572.56;5047231;28;19924;-86
2022/09/21 07:59:06;;;;;;;;;;;;;;;12.70;90.91;102577.19;5047424;28;20027;-87
2022/09/21 08:01:35;;;;;;;;;;;;;;;12.86;89.29;102572.63;5047370;28;19925;-87
2022/09/21 08:04:01;;;;;;;;;;;;;;;12.99;89.57;102570.97;5047960;28;19920;-87
2022/09/21 08:06:29;;;;;;;;;;;;;;;13.25;89.96;102574.28;5049678;28;19994;-87
2022/09/21 08:08:54;;;;;;;;;;;;;;;13.53;90.33;102576.34;5050080;28;19924;-88
2022/09/21 08:11:24;;;;;;;;;;;;;;;13.79;90.53;102575.81;5050057;28;19932;-87
2022/09/21 08:13:54;;;;;;;;;;;;;;;14.08;89.44;102582.25;5050381;28;21372;-87
2022/09/21 08:16:19;;;;;;;;;;;;;;;14.37;89.39;102569.56;5049788;28;19931;-88
2022/09/21 08:18:44;;;;;;;;;;;;;;;14.68;90.60;102575.53;5049131;28;20274;-88
2022/09/21 08:21:10;;;;;;;;;;;;;;;15.02;90.18;102584.81;5049813;28;20362;-87
2022/09/21 08:23:39;;;;;;;;;;;;;;;15.38;89.83;102579.38;5050234;28;19924;-89
2022/09/21 08:26:06;;;;;;;;;;;;;;;15.64;81.68;102584.97;5051084;28;19928;-88
2022/09/21 08:28:32;;;;;;;;;;;;;;;15.90;85.09;102575.22;5050810;28;19924;-87
2022/09/21 08:30:58;;;;;;;;;;;;;;;16.28;87.98;102587.50;5050275;28;19924;-86
2022/09/21 08:33:23;;;;;;;;;;;;;;;16.55;86.28;102591.13;5050114;28;20355;-87
2022/09/21 08:35:55;;;;;;;;;;;;;;;16.82;84.08;102585.66;5049752;28;19971;-87
2022/09/21 08:38:21;;;;;;;;;;;;;;;17.15;83.38;102590.31;5049837;28;20043;-87
2022/09/21 08:40:46;;;;;;;;;;;;;;;17.33;82.05;102581.41;5049686;28;20214;-87
2022/09/21 08:43:14;;;;;;;;;;;;;;;17.45;78.06;102585.16;5051985;28;19931;-86
2022/09/21 08:45:41;;;;;;;;;;;;;;;17.66;76.66;102588.66;5050686;28;19928;-88
2022/09/21 08:48:13;;;;;;;;;;;;;;;17.79;76.92;102590.50;5049713;28;19927;-88
2022/09/21 08:51:10;;;;;;;;;;;;;;;18.00;79.64;102590.22;5050307;28;19924;-88
2022/09/21 08:53:42;;;;;;;;;;;;;;;18.21;79.94;102586.31;5008188;28;20344;-87
2022/09/21 08:56:10;;;;;;;;;;;;;;;18.52;79.09;102592.00;5050157;28;19980;-87
2022/09/21 08:58:35;;;;;;;;;;;;;;;18.59;63.85;102591.94;5051379;28;20069;-87
2022/09/21 09:01:07;;;;;;;;;;;;;;;18.11;62.71;102596.06;5050364;28;20478;-87
2022/09/21 09:03:50;;;;;;;;;;;;;;;17.98;71.36;102595.09;5050952;28;19935;-88
2022/09/21 09:06:18;;;;;;;;;;;;;;;18.19;73.55;102591.16;5050257;28;19935;-88
2022/09/21 09:08:44;;;;;;;;;;;;;;;18.58;71.24;102601.22;5050770;28;20257;-88
2022/09/21 09:11:19;;;;;;;;;;;;;;;18.75;72.60;102605.13;5049547;28;19976;-86
2022/09/21 09:13:56;;;;;;;;;;;;;;;18.30;60.58;102592.34;5050749;28;19920;-88
2022/09/21 09:16:48;;;;;;;;;;;;;;;18.58;70.28;102602.09;5050019;28;19924;-88
2022/09/21 09:19:19;;;;;;;;;;;;;;;19.05;70.01;102608.06;5050607;28;19924;-87
2022/09/21 09:21:45;;;;;;;;;;;;;;;19.29;67.28;102602.75;5050378;28;19956;-87
2022/09/21 09:24:14;;;;;;;;;;;;;;;19.24;66.29;102610.81;5055712;28;19924;-89
2022/09/21 09:26:46;;;;;;;;;;;;;;;19.18;63.14;102603.50;5050242;28;19925;-87
2022/09/21 09:29:11;;;;;;;;;;;;;;;19.02;55.94;102607.66;5030141;28;20326;-88
2022/09/21 09:31:37;;;;;;;;;;;;;;;19.11;60.64;102599.97;5050171;28;19920;-87
2022/09/21 09:34:12;;;;;;;;;;;;;;;18.88;61.35;102604.22;5063927;28;19924;-87
2022/09/21 09:36:38;;;;;;;;;;;;;;;19.02;63.83;102607.66;5049798;28;19931;-88
2022/09/21 09:39:13;;;;;;;;;;;;;;;19.52;67.72;102614.97;5050004;28;19990;-88
2022/09/21 09:41:57;;;;;;;;;;;;;;;19.83;67.27;102602.16;5048838;28;20099;-88
2022/09/21 09:44:41;;;;;;;;;;;;;;;20.05;62.48;102597.00;5048776;28;20043;-87
2022/09/21 09:47:10;;;;;;;;;;;;;;;20.31;67.15;102605.94;5050316;28;20391;-87
2022/09/21 09:49:35;;;;;;;;;;;;;;;20.28;54.79;102607.25;5051823;28;20112;-88
2022/09/21 09:52:00;;;;;;;;;;;;;;;20.26;63.31;102609.38;5051063;28;20153;-87
2022/09/21 09:54:27;;;;;;;;;;;;;;;19.96;60.29;102604.72;5053096;28;19924;-88
2022/09/21 09:56:54;;;;;;;;;;;;;;;19.50;56.32;102603.34;5052681;28;20352;-88
2022/09/21 09:59:29;;;;;;;;;;;;;;;19.42;60.66;102609.16;5053005;28;19921;-87
2022/09/21 10:02:02;;;;;;;;;;;;;;;19.10;56.00;102610.13;5053348;28;19925;-88
2022/09/21 10:04:28;;;;;;;;;;;;;;;18.73;56.89;102610.84;5061920;28;19923;-85
2022/09/21 10:06:53;;;;;;;;;;;;;;;18.32;55.01;102597.66;5064761;28;19912;-87
2022/09/21 10:09:19;;;;;;;;;;;;;;;18.30;56.99;102597.84;5058089;28;19960;-85
2022/09/21 10:11:45;;;;;;;;;;;;;;;18.60;61.33;102599.13;5071076;28;19908;-84
2022/09/21 10:14:15;;;;;;;;;;;;;;;18.85;55.15;102608.22;5070655;28;19916;-86
2022/09/21 10:16:40;;;;;;;;;;;;;;;18.65;56.56;102604.78;5063207;28;20003;-86
2022/09/21 10:19:12;;;;;;;;;;;;;;;18.78;56.76;102610.19;5055097;28;19959;-86
2022/09/21 10:25:17;;;;;;;;;;;;;;;18.89;53.04;102603.16;5055071;28;19955;-86
2022/09/21 10:27:44;;;;;;;;;;;;;;;19.33;55.22;102609.47;5055607;28;20360;-85
2022/09/21 10:30:28;;;;;;;;;;;;;;;19.55;56.32;102592.50;5074223;28;19923;-85
2022/09/21 10:32:54;;;;;;;;;;;;;;;19.90;59.95;102587.22;5083699;28;19981;-85
2022/09/21 10:35:19;;;;;;;;;;;;;;;20.49;60.52;102596.75;5068655;28;20348;-84
2022/09/21 10:37:53;;;;;;;;;;;;;;;20.84;51.71;102593.25;5085652;28;19916;-85
2022/09/21 10:40:18;;;;;;;;;;;;;;;21.08;56.95;102583.91;5080597;28;19939;-86
2022/09/21 10:42:44;;;;;;;;;;;;;;;20.91;47.60;102588.47;5078470;28;19916;-86
2022/09/21 10:45:09;;;;;;;;;;;;;;;20.81;44.43;102578.03;5068739;28;19923;-86
2022/09/21 10:47:36;;;;;;;;;;;;;;;21.02;51.43;102584.84;5092103;28;19995;-87
2022/09/21 10:50:19;;;;;;;;;;;;;;;21.38;52.72;102577.41;5069490;28;19913;-86
2022/09/21 10:52:44;;;;;;;;;;;;;;;21.70;49.91;102576.97;5060765;28;19963;-84
2022/09/21 10:55:17;;;;;;;;;;;;;;;21.33;45.03;102571.75;5086163;28;20283;-85
2022/09/21 10:57:43;;;;;;;;;;;;;;;21.45;50.01;102576.44;5063244;28;19919;-86
2022/09/21 11:00:20;;;;;;;;;;;;;;;21.35;52.68;102575.13;5086339;28;19923;-84
2022/09/21 11:02:47;;;;;;;;;;;;;;;20.84;41.20;102573.97;5069549;28;19939;-86
2022/09/21 11:05:31;;;;;;;;;;;;;;;20.59;42.60;102577.75;5090068;28;19923;-86
2022/09/21 11:08:13;;;;;;;;;;;;;;;20.15;47.15;102572.47;5075137;28;19912;-84
2022/09/21 11:10:56;;;;;;;;;;;;;;;20.07;45.97;102575.56;5060654;28;20303;-85
2022/09/21 11:13:39;;;;;;;;;;;;;;;19.99;46.11;102573.16;5061523;28;19912;-87
2022/09/21 11:16:17;;;;;;;;;;;;;;;19.77;46.33;102578.28;5067765;28;20360;-85
2022/09/21 11:19:00;;;;;;;;;;;;;;;19.70;45.32;102584.69;5072160;28;20360;-85
2022/09/21 11:21:39;;;;;;;;;;;;;;;19.62;45.62;102578.69;5064662;28;19921;-85
2022/09/21 11:24:26;;;;;;;;;;;;;;;19.45;43.79;102578.47;5048539;28;19925;-85
2022/09/21 11:26:58;;;;;;;;;;;;;;;19.35;42.13;102579.00;5047548;28;19932;-86
2022/09/21 11:29:26;;;;;;;;;;;;;;;19.03;45.50;102571.72;5047487;28;20003;-85
2022/09/21 11:31:54;;;;;;;;;;;;;;;19.00;48.73;102574.94;5048063;28;20388;-85
2022/09/21 11:34:38;;;;;;;;;;;;;;;18.71;47.39;102568.19;5063167;28;19916;-85
2022/09/21 11:37:18;;;;;;;;;;;;;;;18.62;47.84;102567.66;5064107;28;19935;-86
2022/09/21 11:39:58;;;;;;;;;;;;;;;18.56;51.26;102566.63;5061515;28;20003;-85
2022/09/21 11:42:24;;;;;;;;;;;;;;;18.49;48.43;102573.25;5063653;28;19919;-85
2022/09/21 11:44:49;;;;;;;;;;;;;;;18.24;48.73;102565.81;5074420;28;19916;-84
2022/09/21 11:47:34;;;;;;;;;;;;;;;18.18;50.93;102550.22;5083647;28;19912;-85
2022/09/21 11:50:09;;;;;;;;;;;;;;;18.03;52.29;102554.13;5073886;28;19969;-85
2022/09/21 11:52:34;;;;;;;;;;;;;;;18.13;51.42;102548.16;5076658;28;19912;-85
2022/09/21 11:55:07;;;;;;;;;;;;;;;18.21;53.38;102549.81;5069523;28;19916;-85
2022/09/21 11:57:50;;;;;;;;;;;;;;;18.07;51.58;102550.94;5084348;28;19949;-84
2022/09/21 12:00:17;;;;;;;;;;;;;;;17.91;54.55;102544.03;5059091;28;20005;-85
2022/09/21 12:02:42;;;;;;;;;;;;;;;17.99;53.53;102547.41;5050192;28;19912;-85
2022/09/21 12:05:14;;;;;;;;;;;;;;;17.90;52.00;102551.44;5059817;28;20078;-85
2022/09/21 12:07:40;;;;;;;;;;;;;;;17.71;51.22;102548.56;5067565;28;19916;-86
2022/09/21 12:10:05;;;;;;;;;;;;;;;17.69;53.90;102553.44;5055293;28;19962;-85
2022/09/21 12:12:35;;;;;;;;;;;;;;;17.82;54.44;102543.47;5072916;28;19916;-85
2022/09/21 12:15:07;;;;;;;;;;;;;;;17.86;53.78;102536.50;5075637;28;20314;-84
2022/09/21 12:17:41;;;;;;;;;;;;;;;17.88;54.79;102542.56;5060777;28;19913;-84
2022/09/21 12:20:06;;;;;;;;;;;;;;;17.98;53.50;102534.75;5057076;28;19912;-85
2022/09/21 12:22:34;;;;;;;;;;;;;;;17.82;52.52;102538.00;5074465;28;19908;-85
2022/09/21 12:25:15;;;;;;;;;;;;;;;17.80;52.98;102538.22;5075276;28;20011;-85
2022/09/21 12:28:13;;;;;;;;;;;;;;;17.72;51.32;102525.59;5058597;28;19959;-84
2022/09/21 12:30:41;;;;;;;;;;;;;;;17.61;52.38;102520.81;5034535;28;19912;-85
2022/09/21 12:33:20;;;;;;;;;;;;;;;17.52;52.72;102524.84;5056743;28;20327;-85
2022/09/21 12:36:01;;;;;;;;;;;;;;;17.32;52.63;102514.78;5055317;28;19985;-85
2022/09/21 12:38:29;;;;;;;;;;;;;;;17.14;54.84;102506.44;5069300;28;19912;-85
2022/09/21 12:41:14;;;;;;;;;;;;;;;16.93;52.11;102500.19;5077204;28;19999;-84
2022/09/21 12:43:50;;;;;;;;;;;;;;;16.96;53.87;102505.22;5071877;28;19923;-85
2022/09/21 12:46:34;;;;;;;;;;;;;;;17.04;55.00;102495.94;5069597;28;20459;-83
2022/09/21 12:49:07;;;;;;;;;;;;;;;16.93;50.40;102502.94;5060268;28;19920;-85
2022/09/21 12:51:40;;;;;;;;;;;;;;;16.91;52.87;102499.53;5066852;28;20314;-85
2022/09/21 12:54:16;;;;;;;;;;;;;;;16.94;52.29;102501.84;5067327;28;19982;-84
2022/09/21 12:56:45;;;;;;;;;;;;;;;16.92;53.46;102495.75;5067350;28;19908;-84